KABE/ABE METAR and TAF weather

Enter ICAO airport designator
Station Type Date Time Source
KABE METAR 2020/03/28 19:13 UTC NOAA

KABE 281913Z 08009KT 5SM HZ FEW006 OVC013 09/06 A3001 RMK AO2 T00890061


Station Type Date Time Source
KABE Decoded METAR 2020/03/28 19:13 UTC NOAA

LEHIGH VALLEY INTERNATIONAL AIRPORT, PA, United States (KABE) 40-39N 075-27W 114M
Mar 28, 2020 - 03:13 PM EDT / 2020.03.28 1913 UTC
Wind: from the E (080 degrees) at 10 MPH (9 KT):0
Visibility: 5 mile(s):0
Sky conditions: overcast
Weather: haze
Temperature: 48.0 F (8.9 C)
Dew Point: 43.0 F (6.1 C)
Relative Humidity: 82%
Pressure (altimeter): 30.01 in. Hg (1016 hPa)
ob: KABE 281913Z 08009KT 5SM HZ FEW006 OVC013 09/06 A3001 RMK AO2 T00890061
cycle: 19

Station Type Date Time Source
KABE TAF 2020/03/28 18:30 UTC NOAA

TAF
AMD KABE 281829Z 2818/2918 08008KT P6SM VCSH OVC025
TEMPO 2818/2822 5SM -SHRA BR OVC009
FM282200 09005KT 5SM -SHRA BR OVC012
FM290000 VRB03KT 3SM -RA BR OVC006
FM290500 VRB03KT 2SM -DZ BR OVC003
FM291700 VRB02KT 4SM BR VCSH OVC010

Example: see airport list